sensor_id;sensor_type;location;lat;lon;timestamp;pressure;altitude;pressure_sealevel;temperature;humidity
62458;BME280;48509;52.122;5.250;2022-09-09T00:01:52;100725.0;;;17.25;92.28
62458;BME280;48509;52.122;5.250;2022-09-09T00:03:40;100725.0;;;17.18;92.89
62458;BME280;48509;52.122;5.250;2022-09-09T00:05:25;100730.0;;;17.13;93.16
62458;BME280;48509;52.122;5.250;2022-09-09T00:07:10;100727.0;;;17.09;93.49
62458;BME280;48509;52.122;5.250;2022-09-09T00:09:01;100726.0;;;17.27;91.79
62458;BME280;48509;52.122;5.250;2022-09-09T00:12:22;100714.0;;;17.11;92.41
62458;BME280;48509;52.122;5.250;2022-09-09T00:14:17;100719.0;;;17.0;93.56
62458;BME280;48509;52.122;5.250;2022-09-09T00:16:02;100722.0;;;17.06;93.0
62458;BME280;48509;52.122;5.250;2022-09-09T00:17:45;100719.0;;;17.04;93.05
62458;BME280;48509;52.122;5.250;2022-09-09T00:19:31;100720.0;;;17.12;92.63
62458;BME280;48509;52.122;5.250;2022-09-09T00:22:59;100718.0;;;17.04;92.66
62458;BME280;48509;52.122;5.250;2022-09-09T00:24:42;100713.0;;;17.2;91.6
62458;BME280;48509;52.122;5.250;2022-09-09T00:26:27;100714.0;;;17.09;92.54
62458;BME280;48509;52.122;5.250;2022-09-09T00:28:15;100709.0;;;17.04;92.68
62458;BME280;48509;52.122;5.250;2022-09-09T00:29:56;100711.0;;;16.86;93.85
62458;BME280;48509;52.122;5.250;2022-09-09T00:33:18;100707.0;;;16.95;93.21
62458;BME280;48509;52.122;5.250;2022-09-09T00:34:57;100709.0;;;16.89;92.88
62458;BME280;48509;52.122;5.250;2022-09-09T00:36:38;100707.0;;;16.9;92.79
62458;BME280;48509;52.122;5.250;2022-09-09T00:38:18;100709.0;;;16.84;92.58
62458;BME280;48509;52.122;5.250;2022-09-09T00:41:46;100707.0;;;16.95;92.0
62458;BME280;48509;52.122;5.250;2022-09-09T00:43:39;100709.0;;;16.82;92.67
62458;BME280;48509;52.122;5.250;2022-09-09T00:45:35;100705.0;;;16.73;93.05
62458;BME280;48509;52.122;5.250;2022-09-09T00:47:34;100706.0;;;16.77;92.55
62458;BME280;48509;52.122;5.250;2022-09-09T00:49:39;100703.0;;;16.61;93.32
62458;BME280;48509;52.122;5.250;2022-09-09T00:51:26;100706.0;;;16.86;92.0
62458;BME280;48509;52.122;5.250;2022-09-09T00:53:22;100709.0;;;16.79;91.47
62458;BME280;48509;52.122;5.250;2022-09-09T00:55:10;100714.0;;;16.7;92.48
62458;BME280;48509;52.122;5.250;2022-09-09T00:57:00;100713.0;;;16.75;91.53
62458;BME280;48509;52.122;5.250;2022-09-09T01:00:29;100713.0;;;16.57;92.35
62458;BME280;48509;52.122;5.250;2022-09-09T01:02:14;100714.0;;;16.5;92.84
62458;BME280;48509;52.122;5.250;2022-09-09T01:03:55;100720.0;;;16.61;92.01
62458;BME280;48509;52.122;5.250;2022-09-09T01:05:36;100723.0;;;16.65;91.96
62458;BME280;48509;52.122;5.250;2022-09-09T01:09:04;100719.0;;;16.59;91.96
62458;BME280;48509;52.122;5.250;2022-09-09T01:10:58;100714.0;;;16.55;92.26
62458;BME280;48509;52.122;5.250;2022-09-09T01:12:39;100708.0;;;16.54;92.35
62458;BME280;48509;52.122;5.250;2022-09-09T01:14:29;100703.0;;;16.46;93.36
62458;BME280;48509;52.122;5.250;2022-09-09T01:16:10;100703.0;;;16.4;93.61
62458;BME280;48509;52.122;5.250;2022-09-09T01:17:52;100707.0;;;16.41;93.32
62458;BME280;48509;52.122;5.250;2022-09-09T01:21:32;100705.0;;;16.5;92.73
62458;BME280;48509;52.122;5.250;2022-09-09T01:23:28;100705.0;;;16.36;93.14
62458;BME280;48509;52.122;5.250;2022-09-09T01:25:20;100695.0;;;16.23;93.51
62458;BME280;48509;52.122;5.250;2022-09-09T01:27:52;100697.0;;;16.2;94.1
62458;BME280;48509;52.122;5.250;2022-09-09T01:29:31;100698.0;;;16.31;93.15
62458;BME280;48509;52.122;5.250;2022-09-09T01:31:11;100700.0;;;16.34;92.89
62458;BME280;48509;52.122;5.250;2022-09-09T01:32:54;100701.0;;;16.23;93.53
62458;BME280;48509;52.122;5.250;2022-09-09T01:34:36;100696.0;;;16.18;93.54
62458;BME280;48509;52.122;5.250;2022-09-09T01:38:00;100701.0;;;16.07;94.01
62458;BME280;48509;52.122;5.250;2022-09-09T01:41:18;100701.0;;;16.3;92.56
62458;BME280;48509;52.122;5.250;2022-09-09T01:42:56;100705.0;;;16.14;92.83
62458;BME280;48509;52.122;5.250;2022-09-09T01:46:11;100705.0;;;16.16;93.17
62458;BME280;48509;52.122;5.250;2022-09-09T01:47:49;100699.0;;;16.05;93.74
62458;BME280;48509;52.122;5.250;2022-09-09T01:49:26;100700.0;;;16.0;94.22
62458;BME280;48509;52.122;5.250;2022-09-09T01:52:39;100697.0;;;16.09;93.57
62458;BME280;48509;52.122;5.250;2022-09-09T01:54:16;100695.0;;;16.09;92.73
62458;BME280;48509;52.122;5.250;2022-09-09T01:56:02;100692.0;;;15.89;93.84
62458;BME280;48509;52.122;5.250;2022-09-09T01:57:49;100693.0;;;15.97;94.12
62458;BME280;48509;52.122;5.250;2022-09-09T02:01:30;100684.0;;;15.93;94.4
62458;BME280;48509;52.122;5.250;2022-09-09T02:03:22;100681.0;;;15.96;94.1
62458;BME280;48509;52.122;5.250;2022-09-09T02:05:11;100680.0;;;16.13;93.11
62458;BME280;48509;52.122;5.250;2022-09-09T02:06:55;100680.0;;;15.98;94.21
62458;BME280;48509;52.122;5.250;2022-09-09T02:08:38;100677.0;;;16.05;94.08
62458;BME280;48509;52.122;5.250;2022-09-09T02:10:21;100672.0;;;15.97;93.92
62458;BME280;48509;52.122;5.250;2022-09-09T02:13:49;100675.0;;;15.96;93.24
62458;BME280;48509;52.122;5.250;2022-09-09T02:15:32;100671.0;;;15.96;93.47
62458;BME280;48509;52.122;5.250;2022-09-09T02:17:18;100670.0;;;15.9;93.99
62458;BME280;48509;52.122;5.250;2022-09-09T02:19:01;100665.0;;;15.93;93.49
62458;BME280;48509;52.122;5.250;2022-09-09T02:20:43;100670.0;;;15.84;93.88
62458;BME280;48509;52.122;5.250;2022-09-09T02:24:02;100672.0;;;15.83;94.17
62458;BME280;48509;52.122;5.250;2022-09-09T02:25:41;100673.0;;;15.84;94.28
62458;BME280;48509;52.122;5.250;2022-09-09T02:27:20;100676.0;;;15.89;94.36
62458;BME280;48509;52.122;5.250;2022-09-09T02:28:59;100676.0;;;15.84;94.07
62458;BME280;48509;52.122;5.250;2022-09-09T02:32:21;100674.0;;;15.76;94.24
62458;BME280;48509;52.122;5.250;2022-09-09T02:34:00;100675.0;;;15.77;94.76
62458;BME280;48509;52.122;5.250;2022-09-09T02:35:38;100670.0;;;15.88;94.07
62458;BME280;48509;52.122;5.250;2022-09-09T02:37:20;100664.0;;;15.99;93.14
62458;BME280;48509;52.122;5.250;2022-09-09T02:40:35;100667.0;;;15.89;94.51
62458;BME280;48509;52.122;5.250;2022-09-09T02:42:11;100671.0;;;15.82;94.34
62458;BME280;48509;52.122;5.250;2022-09-09T02:43:47;100666.0;;;15.96;93.85
62458;BME280;48509;52.122;5.250;2022-09-09T02:47:19;100668.0;;;15.88;94.42
62458;BME280;48509;52.122;5.250;2022-09-09T02:49:03;100663.0;;;15.94;93.79
62458;BME280;48509;52.122;5.250;2022-09-09T02:50:51;100662.0;;;16.02;93.03
62458;BME280;48509;52.122;5.250;2022-09-09T02:52:38;100663.0;;;15.99;94.18
62458;BME280;48509;52.122;5.250;2022-09-09T02:54:25;100661.0;;;16.02;93.19
62458;BME280;48509;52.122;5.250;2022-09-09T02:57:48;100663.0;;;15.91;93.02
62458;BME280;48509;52.122;5.250;2022-09-09T02:59:26;100663.0;;;15.87;93.17
62458;BME280;48509;52.122;5.250;2022-09-09T03:01:03;100658.0;;;15.78;94.23
62458;BME280;48509;52.122;5.250;2022-09-09T03:02:39;100659.0;;;15.84;94.6
62458;BME280;48509;52.122;5.250;2022-09-09T03:05:51;100659.0;;;15.83;94.54
62458;BME280;48509;52.122;5.250;2022-09-09T03:07:28;100659.0;;;15.8;94.37
62458;BME280;48509;52.122;5.250;2022-09-09T03:09:04;100659.0;;;15.81;94.26
62458;BME280;48509;52.122;5.250;2022-09-09T03:12:16;100660.0;;;15.73;95.42
62458;BME280;48509;52.122;5.250;2022-09-09T03:13:53;100650.0;;;15.87;94.39
62458;BME280;48509;52.122;5.250;2022-09-09T03:15:31;100652.0;;;15.79;94.96
62458;BME280;48509;52.122;5.250;2022-09-09T03:17:09;100652.0;;;15.79;95.0
62458;BME280;48509;52.122;5.250;2022-09-09T03:20:22;100655.0;;;15.68;95.54
62458;BME280;48509;52.122;5.250;2022-09-09T03:22:00;100653.0;;;15.68;95.68
62458;BME280;48509;52.122;5.250;2022-09-09T03:23:36;100648.0;;;15.67;95.52
62458;BME280;48509;52.122;5.250;2022-09-09T03:26:50;100651.0;;;15.66;95.56
62458;BME280;48509;52.122;5.250;2022-09-09T03:28:31;100650.0;;;15.71;95.2
62458;BME280;48509;52.122;5.250;2022-09-09T03:30:08;100652.0;;;15.77;94.19
62458;BME280;48509;52.122;5.250;2022-09-09T03:31:44;100655.0;;;15.69;94.88
62458;BME280;48509;52.122;5.250;2022-09-09T03:34:56;100655.0;;;15.68;94.49
62458;BME280;48509;52.122;5.250;2022-09-09T03:36:33;100657.0;;;15.67;93.95
62458;BME280;48509;52.122;5.250;2022-09-09T03:38:10;100653.0;;;15.69;94.4
62458;BME280;48509;52.122;5.250;2022-09-09T03:41:24;100655.0;;;15.74;93.17
62458;BME280;48509;52.122;5.250;2022-09-09T03:43:01;100657.0;;;15.68;93.68
62458;BME280;48509;52.122;5.250;2022-09-09T03:44:37;100655.0;;;15.65;94.31
62458;BME280;48509;52.122;5.250;2022-09-09T03:47:50;100652.0;;;15.76;93.22
62458;BME280;48509;52.122;5.250;2022-09-09T03:49:28;100646.0;;;15.67;94.33
62458;BME280;48509;52.122;5.250;2022-09-09T03:51:05;100645.0;;;15.82;93.52
62458;BME280;48509;52.122;5.250;2022-09-09T03:52:42;100646.0;;;15.85;93.21
62458;BME280;48509;52.122;5.250;2022-09-09T03:55:55;100649.0;;;15.9;92.69
62458;BME280;48509;52.122;5.250;2022-09-09T03:57:35;100650.0;;;15.77;93.83
62458;BME280;48509;52.122;5.250;2022-09-09T03:59:12;100655.0;;;15.72;93.81
62458;BME280;48509;52.122;5.250;2022-09-09T04:02:30;100655.0;;;15.73;93.09
62458;BME280;48509;52.122;5.250;2022-09-09T04:04:08;100655.0;;;15.57;94.1
62458;BME280;48509;52.122;5.250;2022-09-09T04:05:48;100652.0;;;15.68;93.37
62458;BME280;48509;52.122;5.250;2022-09-09T04:07:25;100650.0;;;15.77;93.51
62458;BME280;48509;52.122;5.250;2022-09-09T04:10:39;100653.0;;;15.51;94.92
62458;BME280;48509;52.122;5.250;2022-09-09T04:12:16;100647.0;;;15.71;93.82
62458;BME280;48509;52.122;5.250;2022-09-09T04:13:52;100650.0;;;15.69;93.9
62458;BME280;48509;52.122;5.250;2022-09-09T04:17:06;100641.0;;;15.67;93.6
62458;BME280;48509;52.122;5.250;2022-09-09T04:18:42;100639.0;;;15.63;94.24
62458;BME280;48509;52.122;5.250;2022-09-09T04:20:19;100636.0;;;15.66;94.24
62458;BME280;48509;52.122;5.250;2022-09-09T04:21:55;100636.0;;;15.65;94.79
62458;BME280;48509;52.122;5.250;2022-09-09T04:25:08;100633.0;;;15.58;95.1
62458;BME280;48509;52.122;5.250;2022-09-09T04:26:45;100635.0;;;15.62;95.47
62458;BME280;48509;52.122;5.250;2022-09-09T04:28:24;100637.0;;;15.67;95.05
62458;BME280;48509;52.122;5.250;2022-09-09T04:31:42;100631.0;;;15.78;94.96
62458;BME280;48509;52.122;5.250;2022-09-09T04:33:17;100636.0;;;15.72;95.1
62458;BME280;48509;52.122;5.250;2022-09-09T04:34:54;100633.0;;;15.74;95.01
62458;BME280;48509;52.122;5.250;2022-09-09T04:36:31;100627.0;;;15.78;94.45
62458;BME280;48509;52.122;5.250;2022-09-09T04:39:45;100624.0;;;15.88;94.0
62458;BME280;48509;52.122;5.250;2022-09-09T04:41:21;100623.0;;;15.98;92.96
62458;BME280;48509;52.122;5.250;2022-09-09T04:42:58;100621.0;;;15.85;93.24
62458;BME280;48509;52.122;5.250;2022-09-09T04:46:11;100618.0;;;15.81;93.62
62458;BME280;48509;52.122;5.250;2022-09-09T04:47:47;100616.0;;;15.77;93.66
62458;BME280;48509;52.122;5.250;2022-09-09T04:49:23;100617.0;;;15.8;94.03
62458;BME280;48509;52.122;5.250;2022-09-09T04:52:37;100616.0;;;15.78;93.82
62458;BME280;48509;52.122;5.250;2022-09-09T04:54:14;100615.0;;;15.75;93.84
62458;BME280;48509;52.122;5.250;2022-09-09T04:55:50;100628.0;;;15.59;95.53
62458;BME280;48509;52.122;5.250;2022-09-09T04:57:26;100624.0;;;15.67;94.49
62458;BME280;48509;52.122;5.250;2022-09-09T05:00:38;100624.0;;;15.65;94.78
62458;BME280;48509;52.122;5.250;2022-09-09T05:02:14;100619.0;;;15.87;93.12
62458;BME280;48509;52.122;5.250;2022-09-09T05:03:52;100621.0;;;15.87;92.78
62458;BME280;48509;52.122;5.250;2022-09-09T05:07:04;100621.0;;;15.83;93.1
62458;BME280;48509;52.122;5.250;2022-09-09T05:08:41;100626.0;;;15.84;92.92
62458;BME280;48509;52.122;5.250;2022-09-09T05:10:18;100621.0;;;15.78;93.86
62458;BME280;48509;52.122;5.250;2022-09-09T05:13:34;100619.0;;;15.84;93.24
62458;BME280;48509;52.122;5.250;2022-09-09T05:15:10;100617.0;;;15.81;93.73
62458;BME280;48509;52.122;5.250;2022-09-09T05:16:47;100618.0;;;15.8;93.47
62458;BME280;48509;52.122;5.250;2022-09-09T05:18:23;100612.0;;;15.82;93.63
62458;BME280;48509;52.122;5.250;2022-09-09T05:21:36;100615.0;;;15.8;93.78
62458;BME280;48509;52.122;5.250;2022-09-09T05:23:13;100614.0;;;15.76;94.21
62458;BME280;48509;52.122;5.250;2022-09-09T05:24:50;100611.0;;;15.78;94.02
62458;BME280;48509;52.122;5.250;2022-09-09T05:28:02;100605.0;;;15.79;93.82
62458;BME280;48509;52.122;5.250;2022-09-09T05:29:39;100609.0;;;15.73;95.01
62458;BME280;48509;52.122;5.250;2022-09-09T05:31:17;100616.0;;;15.73;94.41
62458;BME280;48509;52.122;5.250;2022-09-09T05:34:32;100614.0;;;15.74;94.62
62458;BME280;48509;52.122;5.250;2022-09-09T05:36:10;100611.0;;;15.8;94.01
62458;BME280;48509;52.122;5.250;2022-09-09T05:37:47;100613.0;;;15.84;93.88
62458;BME280;48509;52.122;5.250;2022-09-09T05:39:23;100608.0;;;15.83;94.5
62458;BME280;48509;52.122;5.250;2022-09-09T05:42:37;100605.0;;;15.88;93.96
62458;BME280;48509;52.122;5.250;2022-09-09T05:44:13;100602.0;;;15.78;94.11
62458;BME280;48509;52.122;5.250;2022-09-09T05:45:59;100606.0;;;15.93;93.26
62458;BME280;48509;52.122;5.250;2022-09-09T05:49:12;100603.0;;;15.85;93.52
62458;BME280;48509;52.122;5.250;2022-09-09T05:50:52;100607.0;;;15.88;93.3
62458;BME280;48509;52.122;5.250;2022-09-09T05:52:29;100610.0;;;15.92;93.26
62458;BME280;48509;52.122;5.250;2022-09-09T05:54:05;100620.0;;;15.95;93.41
62458;BME280;48509;52.122;5.250;2022-09-09T05:57:19;100618.0;;;15.87;94.55
62458;BME280;48509;52.122;5.250;2022-09-09T05:58:55;100621.0;;;15.93;94.48
62458;BME280;48509;52.122;5.250;2022-09-09T06:00:32;100622.0;;;15.9;94.41
62458;BME280;48509;52.122;5.250;2022-09-09T06:03:46;100617.0;;;15.94;94.5
62458;BME280;48509;52.122;5.250;2022-09-09T06:05:23;100624.0;;;16.09;93.59
62458;BME280;48509;52.122;5.250;2022-09-09T06:07:00;100623.0;;;16.13;93.16
62458;BME280;48509;52.122;5.250;2022-09-09T06:08:40;100622.0;;;16.04;94.12
62458;BME280;48509;52.122;5.250;2022-09-09T06:11:54;100624.0;;;16.0;94.42
62458;BME280;48509;52.122;5.250;2022-09-09T06:13:31;100623.0;;;16.09;94.17
62458;BME280;48509;52.122;5.250;2022-09-09T06:15:09;100621.0;;;16.04;95.12
62458;BME280;48509;52.122;5.250;2022-09-09T06:18:22;100625.0;;;16.12;94.91
62458;BME280;48509;52.122;5.250;2022-09-09T06:19:59;100616.0;;;16.28;93.97
62458;BME280;48509;52.122;5.250;2022-09-09T06:21:36;100614.0;;;16.25;94.14
62458;BME280;48509;52.122;5.250;2022-09-09T06:23:13;100622.0;;;16.25;94.51
62458;BME280;48509;52.122;5.250;2022-09-09T06:26:26;100618.0;;;16.27;94.3
62458;BME280;48509;52.122;5.250;2022-09-09T06:28:03;100616.0;;;16.29;94.61
62458;BME280;48509;52.122;5.250;2022-09-09T06:29:39;100614.0;;;16.27;95.46
62458;BME280;48509;52.122;5.250;2022-09-09T06:32:56;100615.0;;;16.34;95.43
62458;BME280;48509;52.122;5.250;2022-09-09T06:34:32;100613.0;;;16.28;96.48
62458;BME280;48509;52.122;5.250;2022-09-09T06:36:11;100610.0;;;16.46;95.26
62458;BME280;48509;52.122;5.250;2022-09-09T06:37:48;100606.0;;;16.52;95.58
62458;BME280;48509;52.122;5.250;2022-09-09T06:41:02;100607.0;;;16.59;95.42
62458;BME280;48509;52.122;5.250;2022-09-09T06:42:38;100606.0;;;16.63;95.96
62458;BME280;48509;52.122;5.250;2022-09-09T06:44:15;100609.0;;;16.68;95.93
62458;BME280;48509;52.122;5.250;2022-09-09T06:47:30;100608.0;;;16.82;95.36
62458;BME280;48509;52.122;5.250;2022-09-09T06:49:07;100607.0;;;16.86;95.02
62458;BME280;48509;52.122;5.250;2022-09-09T06:50:43;100608.0;;;16.86;95.86
62458;BME280;48509;52.122;5.250;2022-09-09T06:53:57;100605.0;;;16.84;95.93
62458;BME280;48509;52.122;5.250;2022-09-09T06:55:35;100607.0;;;16.93;95.26
62458;BME280;48509;52.122;5.250;2022-09-09T06:57:11;100605.0;;;17.04;95.13
62458;BME280;48509;52.122;5.250;2022-09-09T06:58:49;100602.0;;;17.22;94.4
62458;BME280;48509;52.122;5.250;2022-09-09T07:02:03;100606.0;;;17.16;94.65
62458;BME280;48509;52.122;5.250;2022-09-09T07:03:39;100607.0;;;17.29;94.1
62458;BME280;48509;52.122;5.250;2022-09-09T07:05:16;100609.0;;;17.34;93.67
62458;BME280;48509;52.122;5.250;2022-09-09T07:08:28;100601.0;;;17.41;92.92
62458;BME280;48509;52.122;5.250;2022-09-09T07:10:05;100601.0;;;17.5;93.72
62458;BME280;48509;52.122;5.250;2022-09-09T07:11:43;100596.0;;;17.54;94.03
62458;BME280;48509;52.122;5.250;2022-09-09T07:15:01;100605.0;;;17.61;92.78
62458;BME280;48509;52.122;5.250;2022-09-09T07:16:37;100601.0;;;17.63;92.68
62458;BME280;48509;52.122;5.250;2022-09-09T07:18:13;100598.0;;;17.59;91.58
62458;BME280;48509;52.122;5.250;2022-09-09T07:19:49;100594.0;;;17.77;92.59
62458;BME280;48509;52.122;5.250;2022-09-09T07:23:04;100600.0;;;17.75;91.54
62458;BME280;48509;52.122;5.250;2022-09-09T07:24:41;100603.0;;;17.91;90.89
62458;BME280;48509;52.122;5.250;2022-09-09T07:26:19;100606.0;;;17.87;89.43
62458;BME280;48509;52.122;5.250;2022-09-09T07:29:33;100610.0;;;17.91;90.37
62458;BME280;48509;52.122;5.250;2022-09-09T07:32:51;100613.0;;;18.13;89.6
62458;BME280;48509;52.122;5.250;2022-09-09T07:34:27;100610.0;;;18.18;90.25
62458;BME280;48509;52.122;5.250;2022-09-09T07:37:43;100614.0;;;18.25;88.95
62458;BME280;48509;52.122;5.250;2022-09-09T07:39:20;100617.0;;;18.28;87.81
62458;BME280;48509;52.122;5.250;2022-09-09T07:41:03;100612.0;;;18.32;87.24
62458;BME280;48509;52.122;5.250;2022-09-09T07:42:39;100616.0;;;18.45;88.0
62458;BME280;48509;52.122;5.250;2022-09-09T07:45:57;100616.0;;;18.34;86.7
62458;BME280;48509;52.122;5.250;2022-09-09T07:47:34;100624.0;;;18.48;88.0
62458;BME280;48509;52.122;5.250;2022-09-09T07:49:11;100622.0;;;18.39;86.97
62458;BME280;48509;52.122;5.250;2022-09-09T07:52:23;100619.0;;;18.39;87.4
62458;BME280;48509;52.122;5.250;2022-09-09T07:54:01;100620.0;;;18.52;86.24
62458;BME280;48509;52.122;5.250;2022-09-09T07:55:38;100621.0;;;18.53;87.45
62458;BME280;48509;52.122;5.250;2022-09-09T07:58:53;100621.0;;;18.66;86.2
62458;BME280;48509;52.122;5.250;2022-09-09T08:00:30;100621.0;;;18.75;85.6
62458;BME280;48509;52.122;5.250;2022-09-09T08:02:08;100617.0;;;18.79;86.03
62458;BME280;48509;52.122;5.250;2022-09-09T08:03:45;100611.0;;;18.71;84.9
62458;BME280;48509;52.122;5.250;2022-09-09T08:07:04;100610.0;;;18.77;84.47
62458;BME280;48509;52.122;5.250;2022-09-09T08:08:42;100609.0;;;18.73;85.1
62458;BME280;48509;52.122;5.250;2022-09-09T08:10:18;100607.0;;;18.68;84.46
62458;BME280;48509;52.122;5.250;2022-09-09T08:13:33;100615.0;;;18.71;84.27
62458;BME280;48509;52.122;5.250;2022-09-09T08:15:11;100613.0;;;18.59;83.65
62458;BME280;48509;52.122;5.250;2022-09-09T08:16:49;100614.0;;;18.56;82.74
62458;BME280;48509;52.122;5.250;2022-09-09T08:18:26;100609.0;;;18.66;82.61
62458;BME280;48509;52.122;5.250;2022-09-09T08:21:43;100613.0;;;18.72;83.4
62458;BME280;48509;52.122;5.250;2022-09-09T08:23:21;100612.0;;;18.77;83.26
62458;BME280;48509;52.122;5.250;2022-09-09T08:24:58;100617.0;;;18.72;82.01
62458;BME280;48509;52.122;5.250;2022-09-09T08:28:12;100620.0;;;18.63;82.28
62458;BME280;48509;52.122;5.250;2022-09-09T08:29:48;100620.0;;;18.71;81.55
62458;BME280;48509;52.122;5.250;2022-09-09T08:31:27;100625.0;;;18.66;82.29
62458;BME280;48509;52.122;5.250;2022-09-09T08:33:05;100625.0;;;18.73;82.18
62458;BME280;48509;52.122;5.250;2022-09-09T08:36:20;100623.0;;;18.54;84.07
62458;BME280;48509;52.122;5.250;2022-09-09T08:37:58;100626.0;;;18.63;83.96
62458;BME280;48509;52.122;5.250;2022-09-09T08:39:34;100622.0;;;18.56;83.18
62458;BME280;48509;52.122;5.250;2022-09-09T08:43:43;100628.0;;;18.87;81.61
62458;BME280;48509;52.122;5.250;2022-09-09T08:47:13;100633.0;;;18.87;82.9
62458;BME280;48509;52.122;5.250;2022-09-09T08:49:03;100631.0;;;18.97;80.8
62458;BME280;48509;52.122;5.250;2022-09-09T08:50:44;100634.0;;;18.95;80.92
62458;BME280;48509;52.122;5.250;2022-09-09T08:52:23;100639.0;;;18.95;82.68
62458;BME280;48509;52.122;5.250;2022-09-09T08:54:04;100637.0;;;19.02;82.18
62458;BME280;48509;52.122;5.250;2022-09-09T08:57:23;100640.0;;;19.09;80.69
62458;BME280;48509;52.122;5.250;2022-09-09T08:59:04;100639.0;;;18.95;81.2
62458;BME280;48509;52.122;5.250;2022-09-09T09:00:50;100641.0;;;18.91;80.33
62458;BME280;48509;52.122;5.250;2022-09-09T09:02:50;100641.0;;;18.91;80.87
62458;BME280;48509;52.122;5.250;2022-09-09T09:04:44;100643.0;;;19.0;81.61
62458;BME280;48509;52.122;5.250;2022-09-09T09:06:39;100642.0;;;19.02;80.91
62458;BME280;48509;52.122;5.250;2022-09-09T09:10:14;100644.0;;;18.97;81.75
62458;BME280;48509;52.122;5.250;2022-09-09T09:12:01;100649.0;;;18.97;81.69
62458;BME280;48509;52.122;5.250;2022-09-09T09:13:47;100645.0;;;18.91;81.38
62458;BME280;48509;52.122;5.250;2022-09-09T09:15:31;100645.0;;;18.88;82.53
62458;BME280;48509;52.122;5.250;2022-09-09T09:17:14;100646.0;;;18.97;82.8
62458;BME280;48509;52.122;5.250;2022-09-09T09:18:55;100647.0;;;18.97;81.73
62458;BME280;48509;52.122;5.250;2022-09-09T09:22:21;100647.0;;;19.02;81.41
62458;BME280;48509;52.122;5.250;2022-09-09T09:24:00;100648.0;;;19.0;80.67
62458;BME280;48509;52.122;5.250;2022-09-09T09:25:39;100652.0;;;19.0;80.69
62458;BME280;48509;52.122;5.250;2022-09-09T09:27:24;100652.0;;;19.11;80.37
62458;BME280;48509;52.122;5.250;2022-09-09T09:30:50;100653.0;;;18.97;81.05
62458;BME280;48509;52.122;5.250;2022-09-09T09:32:33;100653.0;;;18.95;80.86
62458;BME280;48509;52.122;5.250;2022-09-09T09:34:12;100656.0;;;18.97;80.98
62458;BME280;48509;52.122;5.250;2022-09-09T09:35:48;100652.0;;;18.91;82.11
62458;BME280;48509;52.122;5.250;2022-09-09T09:39:06;100651.0;;;19.03;80.42
62458;BME280;48509;52.122;5.250;2022-09-09T09:40:52;100653.0;;;18.93;81.47
62458;BME280;48509;52.122;5.250;2022-09-09T09:42:29;100653.0;;;18.98;80.02
62458;BME280;48509;52.122;5.250;2022-09-09T09:44:23;100658.0;;;19.0;79.94
62458;BME280;48509;52.122;5.250;2022-09-09T09:47:41;100659.0;;;19.07;80.89
62458;BME280;48509;52.122;5.250;2022-09-09T09:49:17;100667.0;;;19.04;82.81
62458;BME280;48509;52.122;5.250;2022-09-09T09:50:56;100664.0;;;18.91;84.89
62458;BME280;48509;52.122;5.250;2022-09-09T09:52:35;100656.0;;;18.84;86.1
62458;BME280;48509;52.122;5.250;2022-09-09T09:56:01;100662.0;;;18.81;85.81
62458;BME280;48509;52.122;5.250;2022-09-09T09:57:39;100659.0;;;18.79;86.24
62458;BME280;48509;52.122;5.250;2022-09-09T09:59:20;100656.0;;;18.61;86.27
62458;BME280;48509;52.122;5.250;2022-09-09T10:01:20;100653.0;;;18.71;87.04
62458;BME280;48509;52.122;5.250;2022-09-09T10:02:59;100647.0;;;18.62;89.13
62458;BME280;48509;52.122;5.250;2022-09-09T10:06:12;100651.0;;;18.59;89.25
62458;BME280;48509;52.122;5.250;2022-09-09T10:08:00;100655.0;;;18.59;89.85
62458;BME280;48509;52.122;5.250;2022-09-09T10:09:37;100652.0;;;18.54;89.11
62458;BME280;48509;52.122;5.250;2022-09-09T10:11:26;100651.0;;;18.56;89.56
62458;BME280;48509;52.122;5.250;2022-09-09T10:14:57;100643.0;;;18.47;91.12
62458;BME280;48509;52.122;5.250;2022-09-09T10:16:47;100646.0;;;18.59;89.95
62458;BME280;48509;52.122;5.250;2022-09-09T10:18:42;100643.0;;;18.54;88.69
62458;BME280;48509;52.122;5.250;2022-09-09T10:20:32;100645.0;;;18.56;89.95
62458;BME280;48509;52.122;5.250;2022-09-09T10:22:22;100648.0;;;18.54;89.33
62458;BME280;48509;52.122;5.250;2022-09-09T10:24:15;100655.0;;;18.43;88.98
62458;BME280;48509;52.122;5.250;2022-09-09T10:26:13;100657.0;;;18.41;89.58
62458;BME280;48509;52.122;5.250;2022-09-09T10:28:24;100660.0;;;18.46;89.0
62458;BME280;48509;52.122;5.250;2022-09-09T10:31:04;100664.0;;;18.5;90.58
62458;BME280;48509;52.122;5.250;2022-09-09T10:32:59;100661.0;;;18.47;90.83
62458;BME280;48509;52.122;5.250;2022-09-09T10:34:55;100667.0;;;18.57;90.17
62458;BME280;48509;52.122;5.250;2022-09-09T10:36:32;100661.0;;;18.5;91.27
62458;BME280;48509;52.122;5.250;2022-09-09T10:40:02;100656.0;;;18.52;92.39
62458;BME280;48509;52.122;5.250;2022-09-09T10:41:57;100658.0;;;18.55;92.32
62458;BME280;48509;52.122;5.250;2022-09-09T10:43:49;100649.0;;;18.73;93.04
62458;BME280;48509;52.122;5.250;2022-09-09T10:45:41;100655.0;;;18.77;92.55
62458;BME280;48509;52.122;5.250;2022-09-09T10:47:37;100651.0;;;18.64;92.76
62458;BME280;48509;52.122;5.250;2022-09-09T10:49:38;100649.0;;;18.73;91.59
62458;BME280;48509;52.122;5.250;2022-09-09T10:51:25;100650.0;;;18.77;90.62
62458;BME280;48509;52.122;5.250;2022-09-09T10:53:10;100647.0;;;18.86;90.93
62458;BME280;48509;52.122;5.250;2022-09-09T10:56:37;100651.0;;;18.84;92.96
62458;BME280;48509;52.122;5.250;2022-09-09T10:58:18;100647.0;;;18.89;91.5
62458;BME280;48509;52.122;5.250;2022-09-09T11:00:04;100647.0;;;18.96;92.42
62458;BME280;48509;52.122;5.250;2022-09-09T11:01:44;100647.0;;;18.91;90.87
62458;BME280;48509;52.122;5.250;2022-09-09T11:05:06;100645.0;;;18.96;91.34
62458;BME280;48509;52.122;5.250;2022-09-09T11:06:54;100643.0;;;19.05;93.29
62458;BME280;48509;52.122;5.250;2022-09-09T11:08:34;100644.0;;;19.2;91.38
62458;BME280;48509;52.122;5.250;2022-09-09T11:10:19;100643.0;;;19.23;88.41
62458;BME280;48509;52.122;5.250;2022-09-09T11:12:01;100640.0;;;19.2;88.6